createdAt,value
2023-04-18T00:01:45.794Z,20.45
2023-04-18T00:04:19.989Z,18.10
2023-04-18T00:06:54.952Z,19.10
2023-04-18T00:09:27.823Z,17.75
2023-04-18T00:12:01.638Z,19.33
2023-04-18T00:14:37.935Z,20.48
2023-04-18T00:17:11.077Z,21.98
2023-04-18T00:19:44.055Z,19.33
2023-04-18T00:22:22.326Z,20.98
2023-04-18T00:24:55.433Z,22.88
2023-04-18T00:27:28.692Z,21.40
2023-04-18T00:30:01.807Z,21.83
2023-04-18T00:32:34.777Z,22.90
2023-04-18T00:35:08.381Z,24.55
2023-04-18T00:37:42.745Z,23.77
2023-04-18T00:40:15.827Z,21.80
2023-04-18T00:42:48.654Z,21.80
2023-04-18T00:45:21.709Z,20.58
2023-04-18T00:47:54.713Z,19.42
2023-04-18T00:50:27.684Z,20.25
2023-04-18T00:53:02.260Z,20.63
2023-04-18T00:55:36.224Z,26.10
2023-04-18T00:58:09.378Z,24.92
2023-04-18T01:00:43.152Z,21.10
2023-04-18T01:03:20.001Z,23.05
2023-04-18T01:05:54.547Z,25.75
2023-04-18T01:08:28.861Z,21.85
2023-04-18T01:11:04.565Z,22.08
2023-04-18T01:13:37.503Z,24.15
2023-04-18T01:16:10.684Z,20.33
2023-04-18T01:18:43.525Z,20.85
2023-04-18T01:21:18.145Z,23.15
2023-04-18T01:23:54.250Z,21.90
2023-04-18T01:26:29.034Z,19.33
2023-04-18T01:29:02.179Z,22.27
2023-04-18T01:31:37.437Z,22.27
2023-04-18T01:34:10.371Z,19.55
2023-04-18T01:36:43.442Z,20.23
2023-04-18T01:39:18.401Z,20.85
2023-04-18T01:41:53.136Z,22.80
2023-04-18T01:44:26.000Z,22.27
2023-04-18T01:46:58.837Z,21.30
2023-04-18T01:49:31.732Z,19.55
2023-04-18T01:52:04.659Z,19.55
2023-04-18T01:54:37.918Z,17.63
2023-04-18T01:57:12.108Z,17.48
2023-04-18T01:59:45.120Z,21.45
2023-04-18T02:02:18.339Z,21.15
2023-04-18T02:04:51.674Z,21.88
2023-04-18T02:07:24.743Z,18.52
2023-04-18T02:09:57.518Z,19.52
2023-04-18T02:12:34.237Z,21.52
2023-04-18T02:15:08.249Z,22.20
2023-04-18T02:17:42.848Z,22.08
2023-04-18T02:20:16.010Z,21.63
2023-04-18T02:22:49.312Z,22.20
2023-04-18T02:25:24.050Z,21.77
2023-04-18T02:27:58.939Z,18.52
2023-04-18T02:30:31.762Z,21.17
2023-04-18T02:33:07.750Z,18.13
2023-04-18T02:35:41.245Z,25.33
2023-04-18T02:38:15.344Z,20.85
2023-04-18T02:40:48.745Z,19.15
2023-04-18T02:43:23.061Z,23.73
2023-04-18T02:45:56.997Z,25.58
2023-04-18T02:48:29.933Z,19.17
2023-04-18T02:51:04.750Z,18.77
2023-04-18T02:53:41.429Z,20.75
2023-04-18T02:56:17.991Z,18.60
2023-04-18T02:59:31.641Z,16.85
2023-04-18T03:02:31.427Z,21.88
2023-04-18T03:05:11.509Z,19.00
2023-04-18T03:07:45.957Z,19.38
2023-04-18T03:10:19.991Z,20.73
2023-04-18T03:12:53.729Z,19.05
2023-04-18T03:15:31.123Z,19.63
2023-04-18T03:18:04.872Z,18.27
2023-04-18T03:20:41.737Z,20.48
2023-04-18T03:23:14.964Z,19.65
2023-04-18T03:25:48.955Z,17.30
2023-04-18T03:28:24.056Z,17.13
2023-04-18T03:30:58.789Z,17.98
2023-04-18T03:33:32.463Z,17.52
2023-04-18T03:36:15.666Z,18.63
2023-04-18T03:38:48.670Z,18.73
2023-04-18T03:41:21.685Z,16.60
2023-04-18T03:43:54.624Z,15.75
2023-04-18T03:46:29.536Z,15.15
2023-04-18T03:49:03.918Z,17.67
2023-04-18T03:51:44.258Z,14.85
2023-04-18T03:54:17.607Z,17.17
2023-04-18T03:56:50.592Z,16.52
2023-04-18T03:59:24.229Z,17.77
2023-04-18T04:01:59.049Z,16.13
2023-04-18T04:04:32.591Z,17.58
2023-04-18T04:07:06.459Z,14.95
2023-04-18T04:09:39.991Z,20.27
2023-04-18T04:12:13.054Z,15.23
2023-04-18T04:14:46.065Z,19.52
2023-04-18T04:17:20.827Z,16.83
2023-04-18T04:19:54.358Z,17.15
2023-04-18T04:22:27.937Z,22.33
2023-04-18T04:25:01.076Z,16.02
2023-04-18T04:27:42.758Z,16.60
2023-04-18T04:30:17.064Z,17.33
2023-04-18T04:32:53.573Z,16.77
2023-04-18T04:35:26.791Z,18.13
2023-04-18T04:38:01.973Z,18.88
2023-04-18T04:40:42.096Z,13.63
2023-04-18T04:43:20.797Z,15.88
2023-04-18T04:45:55.095Z,17.83
2023-04-18T04:48:31.690Z,14.35
2023-04-18T04:51:05.570Z,14.95
2023-04-18T04:53:38.755Z,15.95
2023-04-18T04:56:13.008Z,18.08
2023-04-18T04:58:47.288Z,13.88
2023-04-18T05:01:43.860Z,13.70
2023-04-18T05:04:19.067Z,15.07
2023-04-18T05:06:53.711Z,14.77
2023-04-18T05:09:27.317Z,15.70
2023-04-18T05:12:01.804Z,16.02
2023-04-18T05:14:34.849Z,17.25
2023-04-18T05:17:07.917Z,16.33
2023-04-18T05:19:44.302Z,19.40
2023-04-18T05:22:17.155Z,14.88
2023-04-18T05:24:50.008Z,18.40
2023-04-18T05:27:23.280Z,17.73
2023-04-18T05:29:56.248Z,17.42
2023-04-18T05:32:29.295Z,14.98
2023-04-18T05:35:03.555Z,17.73
2023-04-18T05:37:36.510Z,14.57
2023-04-18T05:40:11.391Z,14.82
2023-04-18T05:42:44.301Z,13.80
2023-04-18T05:45:17.401Z,14.77
2023-04-18T05:47:51.213Z,19.10
2023-04-18T05:50:25.931Z,15.75
2023-04-18T05:52:59.427Z,15.57
2023-04-18T05:55:32.456Z,15.02
2023-04-18T05:58:05.775Z,16.13
2023-04-18T06:00:38.684Z,15.52
2023-04-18T06:03:11.834Z,13.32
2023-04-18T06:05:46.346Z,15.18
2023-04-18T06:08:19.525Z,16.45
2023-04-18T06:10:52.542Z,15.63
2023-04-18T06:13:25.476Z,20.05
2023-04-18T06:15:58.921Z,14.50
2023-04-18T06:18:33.251Z,17.80
2023-04-18T06:21:07.889Z,16.85
2023-04-18T06:23:40.837Z,15.52
2023-04-18T06:26:13.811Z,13.90
2023-04-18T06:29:14.552Z,16.98
2023-04-18T06:31:48.386Z,15.40
2023-04-18T06:34:21.453Z,18.02
2023-04-18T06:36:55.946Z,13.82
2023-04-18T06:39:29.311Z,14.32
2023-04-18T06:42:02.558Z,15.10
2023-04-18T06:44:35.948Z,17.38
2023-04-18T06:47:08.825Z,16.92
2023-04-18T06:49:41.775Z,14.40
2023-04-18T06:52:16.207Z,15.23
2023-04-18T06:54:49.334Z,18.70
2023-04-18T06:57:22.355Z,16.52
2023-04-18T06:59:55.266Z,17.10
2023-04-18T07:02:28.336Z,17.75
2023-04-18T07:05:01.560Z,15.77
2023-04-18T07:07:36.161Z,15.55
2023-04-18T07:10:11.598Z,15.20
2023-04-18T07:12:44.520Z,15.73
2023-04-18T07:15:17.465Z,15.80
2023-04-18T07:17:50.261Z,18.15
2023-04-18T07:20:23.318Z,16.38
2023-04-18T07:22:57.510Z,14.85
2023-04-18T07:25:30.710Z,15.10
2023-04-18T07:28:03.878Z,16.77
2023-04-18T07:30:36.831Z,16.60
2023-04-18T07:33:10.027Z,14.80
2023-04-18T07:35:46.204Z,17.33
2023-04-18T07:38:20.857Z,14.38
2023-04-18T07:40:58.364Z,14.02
2023-04-18T07:43:31.576Z,17.88
2023-04-18T07:46:04.940Z,14.02
2023-04-18T07:48:38.364Z,15.25
2023-04-18T07:51:12.416Z,14.85
2023-04-18T07:53:46.612Z,15.23
2023-04-18T07:56:20.038Z,12.15
2023-04-18T07:58:53.364Z,12.98
2023-04-18T08:01:27.542Z,11.70
2023-04-18T08:04:02.087Z,14.05
2023-04-18T08:06:35.900Z,11.63
2023-04-18T08:09:10.261Z,11.15
2023-04-18T08:11:44.115Z,11.38
2023-04-18T08:14:17.100Z,15.93
2023-04-18T08:16:49.909Z,11.23
2023-04-18T08:19:23.740Z,11.65
2023-04-18T08:22:09.177Z,10.15
2023-04-18T08:25:01.157Z,10.30
2023-04-18T08:27:36.364Z,10.07
2023-04-18T08:30:10.990Z,8.98
2023-04-18T08:32:44.357Z,11.63
2023-04-18T08:35:17.558Z,8.80
2023-04-18T08:37:50.470Z,8.75
2023-04-18T08:40:25.338Z,10.00
2023-04-18T08:42:58.803Z,7.47
2023-04-18T08:45:33.513Z,8.70
2023-04-18T08:48:07.710Z,8.25
2023-04-18T08:50:41.107Z,7.47
2023-04-18T08:53:14.320Z,6.45
2023-04-18T08:55:50.624Z,7.70
2023-04-18T08:58:24.420Z,8.63
2023-04-18T09:00:57.381Z,8.50
2023-04-18T09:03:39.892Z,8.23
2023-04-18T09:06:16.320Z,7.72
2023-04-18T09:08:59.344Z,6.93
2023-04-18T09:11:34.523Z,7.03
2023-04-18T09:14:08.009Z,6.53
2023-04-18T09:16:48.045Z,7.97
2023-04-18T09:19:21.890Z,6.97
2023-04-18T09:22:00.918Z,7.13
2023-04-18T09:24:34.523Z,8.73
2023-04-18T09:27:14.505Z,6.47
2023-04-18T09:29:49.574Z,7.28
2023-04-18T09:32:29.247Z,7.80
2023-04-18T09:35:05.852Z,8.50
2023-04-18T09:37:39.221Z,7.82
2023-04-18T09:40:18.357Z,5.75
2023-04-18T09:42:56.001Z,6.82
2023-04-18T09:45:29.408Z,6.30
2023-04-18T09:48:03.230Z,10.65
2023-04-18T09:50:38.004Z,8.80
2023-04-18T09:53:15.854Z,6.07
2023-04-18T09:55:52.504Z,9.32
2023-04-18T09:58:33.372Z,7.15
2023-04-18T10:01:07.870Z,8.95
2023-04-18T10:03:46.020Z,7.18
2023-04-18T10:06:19.840Z,6.65
2023-04-18T10:08:54.068Z,8.40
2023-04-18T10:11:28.345Z,7.78
2023-04-18T10:14:07.952Z,6.90
2023-04-18T10:16:42.460Z,7.40
2023-04-18T10:19:24.032Z,6.03
2023-04-18T10:21:59.838Z,7.15
2023-04-18T10:24:53.909Z,6.95
2023-04-18T10:27:56.961Z,7.10
2023-04-18T10:30:58.093Z,7.50
2023-04-18T10:33:34.852Z,7.55
2023-04-18T10:36:17.049Z,8.52
2023-04-18T10:38:52.193Z,8.13
2023-04-18T10:44:23.914Z,9.70
2023-04-18T10:47:32.232Z,9.20
2023-04-18T10:50:07.076Z,8.93
2023-04-18T10:52:41.950Z,7.18
2023-04-18T10:55:20.482Z,8.95
2023-04-18T10:57:56.785Z,7.28
2023-04-18T11:00:31.289Z,8.43
2023-04-18T11:03:06.679Z,6.13
2023-04-18T11:05:40.069Z,8.15
2023-04-18T11:08:24.308Z,6.25
2023-04-18T11:11:03.190Z,6.22
2023-04-18T11:13:37.745Z,11.25
2023-04-18T11:16:11.059Z,5.80
2023-04-18T11:18:45.349Z,7.53
2023-04-18T11:21:18.264Z,9.27
2023-04-18T11:23:51.438Z,8.55
2023-04-18T11:26:29.078Z,8.07
2023-04-18T11:29:02.880Z,6.30
2023-04-18T11:31:36.220Z,8.27
2023-04-18T11:34:11.540Z,6.47
2023-04-18T11:36:44.965Z,6.57
2023-04-18T11:39:18.450Z,6.93
2023-04-18T11:41:52.031Z,7.80
2023-04-18T11:44:25.957Z,7.40
2023-04-18T11:46:59.122Z,7.47
2023-04-18T11:49:34.211Z,7.65
2023-04-18T11:52:13.405Z,7.25
2023-04-18T11:54:46.861Z,6.85
2023-04-18T11:57:22.156Z,6.35
2023-04-18T11:59:57.557Z,8.40
2023-04-18T12:02:41.749Z,7.53
2023-04-18T12:05:27.059Z,6.45
2023-04-18T12:08:07.414Z,8.38
2023-04-18T12:10:47.629Z,7.75
2023-04-18T12:13:26.821Z,6.93
2023-04-18T12:16:03.046Z,7.03
2023-04-18T12:18:36.178Z,7.80
2023-04-18T12:21:10.872Z,8.35
2023-04-18T12:23:45.989Z,8.00
2023-04-18T12:26:19.380Z,7.18
2023-04-18T12:28:54.330Z,7.63
2023-04-18T12:31:28.735Z,9.15
2023-04-18T12:34:01.739Z,9.82
2023-04-18T12:36:36.516Z,9.18
2023-04-18T12:39:10.315Z,7.53
2023-04-18T12:41:44.741Z,8.57
2023-04-18T12:44:17.840Z,8.32
2023-04-18T12:46:50.934Z,7.90
2023-04-18T12:49:23.929Z,8.57
2023-04-18T12:51:58.215Z,8.90
2023-04-18T12:54:31.105Z,8.98
2023-04-18T12:57:04.046Z,6.70
2023-04-18T12:59:37.164Z,6.93
2023-04-18T13:02:10.175Z,7.47
2023-04-18T13:04:43.545Z,7.05
2023-04-18T13:07:18.329Z,6.70
2023-04-18T13:09:51.267Z,7.68
2023-04-18T13:12:24.259Z,5.97
2023-04-18T13:14:57.334Z,7.10
2023-04-18T13:17:30.680Z,7.60
2023-04-18T13:20:04.853Z,7.93
2023-04-18T13:22:40.137Z,7.47
2023-04-18T13:25:12.970Z,6.82
2023-04-18T13:27:46.779Z,9.38
2023-04-18T13:30:20.057Z,6.18
2023-04-18T13:32:53.141Z,7.57
2023-04-18T13:35:26.041Z,6.45
2023-04-18T13:38:00.468Z,7.15
2023-04-18T13:40:33.524Z,8.30
2023-04-18T13:43:06.397Z,7.65
2023-04-18T13:45:39.254Z,6.45
2023-04-18T13:48:13.845Z,7.70
2023-04-18T13:50:49.397Z,8.50
2023-04-18T13:53:23.686Z,7.15
2023-04-18T13:55:57.014Z,8.35
2023-04-18T13:58:33.039Z,7.20
2023-04-18T14:01:06.271Z,8.20
2023-04-18T14:03:41.286Z,6.20
2023-04-18T14:06:17.026Z,8.38
2023-04-18T14:08:52.123Z,7.13
2023-04-18T14:11:24.995Z,6.57
2023-04-18T14:13:57.811Z,6.85
2023-04-18T14:16:33.378Z,8.52
2023-04-18T14:19:06.579Z,7.05
2023-04-18T14:21:39.388Z,6.72
2023-04-18T14:24:13.519Z,7.32
2023-04-18T14:26:46.325Z,6.95
2023-04-18T14:29:19.273Z,6.72
2023-04-18T14:31:52.193Z,7.20
2023-04-18T14:34:25.390Z,6.00
2023-04-18T14:36:58.292Z,6.88
2023-04-18T14:39:32.600Z,7.20
2023-04-18T14:42:05.779Z,8.00
2023-04-18T14:44:38.827Z,5.65
2023-04-18T14:47:11.654Z,6.03
2023-04-18T14:49:44.802Z,8.73
2023-04-18T14:52:17.673Z,5.05
2023-04-18T14:54:51.996Z,4.85
2023-04-18T14:57:25.465Z,6.10
2023-04-18T14:59:58.277Z,5.72
2023-04-18T15:02:31.308Z,8.52
2023-04-18T15:05:04.863Z,6.53
2023-04-18T15:07:38.159Z,9.10
2023-04-18T15:10:13.769Z,9.05
2023-04-18T15:12:47.444Z,8.88
2023-04-18T15:15:20.828Z,7.00
2023-04-18T15:17:54.026Z,8.40
2023-04-18T15:20:27.291Z,9.32
2023-04-18T15:23:00.345Z,8.55
2023-04-18T15:25:35.938Z,9.23
2023-04-18T15:28:08.798Z,11.30
2023-04-18T15:30:41.885Z,11.25
2023-04-18T15:33:15.737Z,10.65
2023-04-18T15:35:48.845Z,10.10
2023-04-18T15:38:22.288Z,11.48
2023-04-18T15:40:56.479Z,10.95
2023-04-18T15:43:29.390Z,10.27
2023-04-18T15:46:02.212Z,10.13
2023-04-18T15:48:36.445Z,8.63
2023-04-18T15:51:09.297Z,7.90
2023-04-18T15:53:42.134Z,9.20
2023-04-18T15:56:16.358Z,9.07
2023-04-18T15:58:49.294Z,10.23
2023-04-18T16:01:22.813Z,10.80
2023-04-18T16:03:56.033Z,11.18
2023-04-18T16:06:31.207Z,10.73
2023-04-18T16:09:06.817Z,10.32
2023-04-18T16:11:41.209Z,12.27
2023-04-18T16:14:14.416Z,10.55
2023-04-18T16:16:47.840Z,9.35
2023-04-18T16:19:20.978Z,12.43
2023-04-18T16:21:53.862Z,12.02
2023-04-18T16:24:26.913Z,10.90
2023-04-18T16:27:01.589Z,11.30
2023-04-18T16:29:35.256Z,11.10
2023-04-18T16:32:08.723Z,14.70
2023-04-18T16:34:41.637Z,13.55
2023-04-18T16:37:14.569Z,17.17
2023-04-18T16:39:48.389Z,14.38
2023-04-18T16:42:23.052Z,15.52
2023-04-18T16:44:56.109Z,16.48
2023-04-18T16:47:29.317Z,14.55
2023-04-18T16:50:02.209Z,12.52
2023-04-18T16:52:35.604Z,14.43
2023-04-18T16:55:09.377Z,16.40
2023-04-18T16:57:43.818Z,21.83
2023-04-18T17:00:17.149Z,23.10
2023-04-18T17:02:50.930Z,19.40
2023-04-18T17:05:25.764Z,14.93
2023-04-18T17:07:58.818Z,15.73
2023-04-18T17:10:32.074Z,14.98
2023-04-18T17:13:06.350Z,15.77
2023-04-18T17:15:39.352Z,14.98
2023-04-18T17:18:12.366Z,16.88
2023-04-18T17:20:45.523Z,16.20
2023-04-18T17:23:18.719Z,13.55
2023-04-18T17:25:51.658Z,15.38
2023-04-18T17:28:26.114Z,15.23
2023-04-18T17:31:01.440Z,16.45
2023-04-18T17:33:34.585Z,15.80
2023-04-18T17:36:07.808Z,15.00
2023-04-18T17:38:40.932Z,16.05
2023-04-18T17:41:13.796Z,16.83
2023-04-18T17:43:50.951Z,17.75
2023-04-18T17:46:24.057Z,16.80
2023-04-18T17:48:56.966Z,16.75
2023-04-18T17:51:29.869Z,17.08
2023-04-18T17:54:03.034Z,18.65
2023-04-18T17:56:36.057Z,16.38
2023-04-18T17:59:11.278Z,15.98
2023-04-18T18:01:44.102Z,16.33
2023-04-18T18:04:17.162Z,15.27
2023-04-18T18:06:57.935Z,15.90
2023-04-18T18:09:30.741Z,15.35
2023-04-18T18:12:04.576Z,14.50
2023-04-18T18:14:40.553Z,16.90
2023-04-18T18:17:13.543Z,16.80
2023-04-18T18:19:46.463Z,19.15
2023-04-18T18:22:21.573Z,15.20
2023-04-18T18:24:54.643Z,14.65
2023-04-18T18:27:27.642Z,16.70
2023-04-18T18:30:02.645Z,15.70
2023-04-18T18:32:35.652Z,16.48
2023-04-18T18:35:09.501Z,14.40
2023-04-18T18:37:42.293Z,18.15
2023-04-18T18:40:15.153Z,17.17
2023-04-18T18:42:49.429Z,15.20
2023-04-18T18:45:24.259Z,16.17
2023-04-18T18:47:57.304Z,16.88
2023-04-18T18:50:30.198Z,17.25
2023-04-18T18:53:03.279Z,15.55
2023-04-18T18:55:36.209Z,15.98
2023-04-18T18:58:09.071Z,17.55
2023-04-18T19:00:43.953Z,16.77
2023-04-18T19:03:19.379Z,16.40
2023-04-18T19:05:52.720Z,14.52
2023-04-18T19:08:26.190Z,16.65
2023-04-18T19:10:59.474Z,15.95
2023-04-18T19:13:32.404Z,15.85
2023-04-18T19:16:07.354Z,15.43
2023-04-18T19:18:41.898Z,17.15
2023-04-18T19:21:14.850Z,15.82
2023-04-18T19:23:47.767Z,15.18
2023-04-18T19:26:20.738Z,15.90
2023-04-18T19:28:54.730Z,14.75
2023-04-18T19:31:29.057Z,13.98
2023-04-18T19:34:02.360Z,16.10
2023-04-18T19:36:35.269Z,15.90
2023-04-18T19:39:09.958Z,14.60
2023-04-18T19:41:43.270Z,14.80
2023-04-18T19:44:16.200Z,14.82
2023-04-18T19:46:50.448Z,13.82
2023-04-18T19:49:23.433Z,15.32
2023-04-18T19:51:56.683Z,14.15
2023-04-18T19:54:30.048Z,14.57
2023-04-18T19:57:04.716Z,13.70
2023-04-18T19:59:37.589Z,15.30
2023-04-18T20:02:12.051Z,21.15
2023-04-18T20:04:45.123Z,14.32
2023-04-18T20:07:18.241Z,15.65
2023-04-18T20:09:51.179Z,14.65
2023-04-18T20:12:24.535Z,14.15
2023-04-18T20:14:58.795Z,12.15
2023-04-18T20:17:34.780Z,13.43
2023-04-18T20:20:10.632Z,15.82
2023-04-18T20:22:44.769Z,16.98
2023-04-18T20:25:18.119Z,13.65
2023-04-18T20:27:51.654Z,14.68
2023-04-18T20:30:24.892Z,13.45
2023-04-18T20:32:59.677Z,14.98
2023-04-18T20:35:32.911Z,14.45
2023-04-18T20:38:06.809Z,15.95
2023-04-18T20:43:41.087Z,16.00
2023-04-18T20:46:14.416Z,15.45
2023-04-18T20:48:48.870Z,16.10
2023-04-18T20:51:21.749Z,13.10
2023-04-18T20:53:54.979Z,14.38
2023-04-18T20:56:28.139Z,15.48
2023-04-18T20:59:01.285Z,17.75
2023-04-18T21:01:36.118Z,15.63
2023-04-18T21:04:11.372Z,16.48
2023-04-18T21:06:44.555Z,16.02
2023-04-18T21:09:18.488Z,18.23
2023-04-18T21:11:51.679Z,18.55
2023-04-18T21:14:25.811Z,16.48
2023-04-18T21:16:59.554Z,18.48
2023-04-18T21:19:34.175Z,16.67
2023-04-18T21:22:07.435Z,15.00
2023-04-18T21:24:40.452Z,18.42
2023-04-18T21:27:13.359Z,14.73
2023-04-18T21:29:46.164Z,16.50
2023-04-18T21:32:19.059Z,17.02
2023-04-18T21:34:53.251Z,15.75
2023-04-18T21:37:26.327Z,15.43
2023-04-18T21:39:59.179Z,15.43
2023-04-18T21:42:32.198Z,14.93
2023-04-18T21:45:06.076Z,15.70
2023-04-18T21:47:39.505Z,14.65
2023-04-18T21:50:14.010Z,16.27
2023-04-18T21:52:46.832Z,14.75
2023-04-18T21:55:19.696Z,14.25
2023-04-18T21:57:54.326Z,12.60
2023-04-18T22:00:29.889Z,16.20
2023-04-18T22:03:04.874Z,13.25
2023-04-18T22:05:39.157Z,14.35
2023-04-18T22:08:12.325Z,14.43
2023-04-18T22:10:46.273Z,14.52
2023-04-18T22:13:19.739Z,13.73
2023-04-18T22:15:52.924Z,15.75
2023-04-18T22:18:25.803Z,13.25
2023-04-18T22:21:00.122Z,11.77
2023-04-18T22:23:32.949Z,13.90
2023-04-18T22:26:05.905Z,11.60
2023-04-18T22:28:38.781Z,14.32
2023-04-18T22:31:11.760Z,12.05
2023-04-18T22:33:44.608Z,13.88
2023-04-18T22:36:19.797Z,11.30
2023-04-18T22:38:52.754Z,14.95
2023-04-18T22:41:25.912Z,11.77
2023-04-18T22:43:58.842Z,13.10
2023-04-18T22:46:32.855Z,10.95
2023-04-18T22:49:05.774Z,11.55
2023-04-18T22:51:40.171Z,10.25
2023-04-18T22:54:13.439Z,14.27
2023-04-18T22:56:46.756Z,12.73
2023-04-18T22:59:19.599Z,14.57
2023-04-18T23:01:52.510Z,12.18
2023-04-18T23:04:26.404Z,10.88
2023-04-18T23:07:00.902Z,9.32
2023-04-18T23:09:34.594Z,8.98
2023-04-18T23:12:08.068Z,10.48
2023-04-18T23:14:41.788Z,11.00
2023-04-18T23:17:14.988Z,10.18
2023-04-18T23:19:47.788Z,9.23
2023-04-18T23:22:24.265Z,12.85
2023-04-18T23:24:57.188Z,9.20
2023-04-18T23:27:30.159Z,11.07
2023-04-18T23:30:03.021Z,10.15
2023-04-18T23:32:36.166Z,9.90
2023-04-18T23:35:09.837Z,10.40
2023-04-18T23:37:44.226Z,9.00
2023-04-18T23:40:17.236Z,11.50
2023-04-18T23:42:50.514Z,12.00
2023-04-18T23:45:24.385Z,10.15
2023-04-18T23:47:57.545Z,9.57
2023-04-18T23:50:30.686Z,10.15
2023-04-18T23:53:04.917Z,7.45
2023-04-18T23:55:37.915Z,9.02
2023-04-18T23:58:11.548Z,7.97
